createdAt,value
2018-06-21T00:00:25.002Z,98630.00
2018-06-21T00:02:55.158Z,98632.00
2018-06-21T00:05:26.220Z,98635.00
2018-06-21T00:07:56.399Z,98640.00
2018-06-21T00:10:26.730Z,98629.00
2018-06-21T00:12:56.989Z,98629.00
2018-06-21T00:15:27.289Z,98626.00
2018-06-21T00:17:57.580Z,98630.00
2018-06-21T00:20:27.830Z,98625.00
2018-06-21T00:22:57.934Z,98628.00
2018-06-21T00:25:27.893Z,98632.00
2018-06-21T00:27:59.261Z,98633.00
2018-06-21T00:30:29.849Z,98624.00
2018-06-21T00:33:01.380Z,98634.00
2018-06-21T00:35:31.290Z,98618.00
2018-06-21T00:38:02.393Z,98621.00
2018-06-21T00:40:33.430Z,98620.00
2018-06-21T00:43:03.660Z,98623.00
2018-06-21T00:45:34.229Z,98619.00
2018-06-21T00:48:04.670Z,98614.00
2018-06-21T00:50:35.020Z,98617.00
2018-06-21T00:53:05.829Z,98613.00
2018-06-21T00:55:51.993Z,98619.00
2018-06-21T00:58:22.329Z,98617.00
2018-06-21T01:00:53.370Z,98617.00
2018-06-21T01:03:23.642Z,98610.00
2018-06-21T01:05:54.049Z,98616.00
2018-06-21T01:08:24.430Z,98615.00
2018-06-21T01:10:54.510Z,98614.00
2018-06-21T01:13:24.890Z,98617.00
2018-06-21T01:15:55.820Z,98616.00
2018-06-21T01:18:25.679Z,98616.00
2018-06-21T01:20:55.840Z,98616.00
2018-06-21T01:23:25.995Z,98608.00
2018-06-21T01:25:56.259Z,98613.00
2018-06-21T01:28:26.880Z,98604.00
2018-06-21T01:30:57.320Z,98610.00
2018-06-21T01:33:27.511Z,98612.00
2018-06-21T01:35:57.840Z,98607.00
2018-06-21T01:38:27.990Z,98598.00
2018-06-21T01:40:59.290Z,98598.00
2018-06-21T01:43:29.190Z,98600.00
2018-06-21T01:45:59.940Z,98594.00
2018-06-21T01:48:30.221Z,98594.00
2018-06-21T01:51:00.350Z,98586.00
2018-06-21T01:53:30.800Z,98585.00
2018-06-21T01:56:02.169Z,98595.00
2018-06-21T01:58:32.031Z,98588.00
2018-06-21T02:01:03.140Z,98585.00
2018-06-21T02:03:33.462Z,98583.00
2018-06-21T02:06:03.870Z,98577.00
2018-06-21T02:08:34.610Z,98576.00
2018-06-21T02:11:05.001Z,98584.00
2018-06-21T02:13:35.279Z,98572.00
2018-06-21T02:16:05.690Z,98572.00
2018-06-21T02:18:35.710Z,98577.00
2018-06-21T02:21:06.479Z,98574.00
2018-06-21T02:23:36.301Z,98580.00
2018-06-21T02:26:07.514Z,98573.00
2018-06-21T02:28:37.559Z,98571.00
2018-06-21T02:31:07.930Z,98573.00
2018-06-21T02:33:37.931Z,98566.00
2018-06-21T02:36:07.491Z,98572.00
2018-06-21T02:38:37.380Z,98583.00
2018-06-21T02:41:08.311Z,98578.00
2018-06-21T02:43:38.830Z,98572.00
2018-06-21T02:46:09.229Z,98573.00
2018-06-21T02:48:40.781Z,98571.00
2018-06-21T02:51:10.800Z,98576.00
2018-06-21T02:53:40.911Z,98567.00
2018-06-21T02:56:12.830Z,98565.00
2018-06-21T02:58:42.641Z,98563.00
2018-06-21T03:01:13.061Z,98564.00
2018-06-21T03:03:43.150Z,98569.00
2018-06-21T03:06:12.995Z,98565.00
2018-06-21T03:08:43.170Z,98567.00
2018-06-21T03:11:13.403Z,98568.00
2018-06-21T03:13:43.387Z,98567.00
2018-06-21T03:16:12.930Z,98566.00
2018-06-21T03:18:43.671Z,98563.00
2018-06-21T03:21:13.781Z,98555.00
2018-06-21T03:23:44.045Z,98556.00
2018-06-21T03:26:14.579Z,98554.00
2018-06-21T03:28:44.830Z,98554.00
2018-06-21T03:31:15.050Z,98553.00
2018-06-21T03:33:45.441Z,98557.00
2018-06-21T03:36:15.821Z,98550.00
2018-06-21T03:38:46.250Z,98552.00
2018-06-21T03:41:16.600Z,98550.00
2018-06-21T03:43:47.630Z,98542.00
2018-06-21T03:46:17.411Z,98542.00
2018-06-21T03:48:47.880Z,98539.00
2018-06-21T03:51:18.301Z,98538.00
2018-06-21T03:53:48.961Z,98542.00
2018-06-21T03:56:19.629Z,98538.00
2018-06-21T03:58:50.630Z,98537.00
2018-06-21T04:01:21.819Z,98529.00
2018-06-21T04:03:51.670Z,98527.00
2018-06-21T04:06:22.081Z,98536.00
2018-06-21T04:08:53.771Z,98534.00
2018-06-21T04:11:24.890Z,98526.00
2018-06-21T04:13:55.129Z,98534.00
2018-06-21T04:16:25.381Z,98534.00
2018-06-21T04:18:55.780Z,98531.00
2018-06-21T04:21:26.023Z,98531.00
2018-06-21T04:23:56.350Z,98537.00
2018-06-21T04:26:26.924Z,98542.00
2018-06-21T04:28:57.610Z,98542.00
2018-06-21T04:31:29.060Z,98535.00
2018-06-21T04:34:00.160Z,98539.00
2018-06-21T04:36:31.461Z,98534.00
2018-06-21T04:39:01.830Z,98545.00
2018-06-21T04:41:31.940Z,98546.00
2018-06-21T04:44:03.030Z,98545.00
2018-06-21T04:46:33.431Z,98546.00
2018-06-21T04:49:03.769Z,98547.00
2018-06-21T04:51:34.122Z,98550.00
2018-06-21T04:54:05.050Z,98542.00
2018-06-21T04:56:34.810Z,98538.00
2018-06-21T04:59:05.010Z,98530.00
2018-06-21T05:01:35.440Z,98523.00
2018-06-21T05:04:06.010Z,98530.00
2018-06-21T05:06:36.321Z,98539.00
2018-06-21T05:09:11.179Z,98542.00
2018-06-21T05:11:41.550Z,98543.00
2018-06-21T05:14:12.530Z,98547.00
2018-06-21T05:16:44.870Z,98546.00
2018-06-21T05:19:15.492Z,98539.00
2018-06-21T05:21:45.663Z,98535.00
2018-06-21T05:24:15.989Z,98534.00
2018-06-21T05:26:47.141Z,98536.00
2018-06-21T05:29:17.300Z,98530.00
2018-06-21T05:31:47.411Z,98534.00
2018-06-21T05:34:17.200Z,98529.00
2018-06-21T05:36:47.140Z,98530.00
2018-06-21T05:39:17.617Z,98531.00
2018-06-21T05:41:47.313Z,98528.00
2018-06-21T05:44:16.900Z,98534.00
2018-06-21T05:46:46.807Z,98535.00
2018-06-21T05:49:16.327Z,98534.00
2018-06-21T05:51:45.809Z,98531.00
2018-06-21T05:54:15.621Z,98536.00
2018-06-21T05:56:45.298Z,98539.00
2018-06-21T05:59:14.909Z,98536.00
2018-06-21T06:01:44.630Z,98528.00
2018-06-21T06:04:14.392Z,98534.00
2018-06-21T06:06:43.990Z,98535.00
2018-06-21T06:09:13.649Z,98538.00
2018-06-21T06:11:43.224Z,98535.00
2018-06-21T06:14:12.908Z,98529.00
2018-06-21T06:16:42.650Z,98527.00
2018-06-21T06:19:12.690Z,98536.00
2018-06-21T06:21:42.150Z,98526.00
2018-06-21T06:24:12.130Z,98520.00
2018-06-21T06:26:42.070Z,98517.00
2018-06-21T06:29:11.790Z,98523.00
2018-06-21T06:31:41.650Z,98514.00
2018-06-21T06:34:11.370Z,98512.00
2018-06-21T06:36:41.030Z,98504.00
2018-06-21T06:39:18.590Z,98496.00
2018-06-21T06:41:50.350Z,98499.00
2018-06-21T06:44:20.352Z,98500.00
2018-06-21T06:46:50.190Z,98497.00
2018-06-21T06:49:19.970Z,98489.00
2018-06-21T06:51:49.651Z,98486.00
2018-06-21T06:54:19.435Z,98488.00
2018-06-21T06:56:49.050Z,98491.00
2018-06-21T06:59:19.011Z,98490.00
2018-06-21T07:01:48.890Z,98477.00
2018-06-21T07:04:18.413Z,98480.00
2018-06-21T07:06:48.030Z,98480.00
2018-06-21T07:09:18.091Z,98477.00
2018-06-21T07:11:47.690Z,98469.00
2018-06-21T07:14:17.446Z,98471.00
2018-06-21T07:16:47.210Z,98472.00
2018-06-21T07:19:16.690Z,98466.00
2018-06-21T07:21:46.249Z,98464.00
2018-06-21T07:24:16.053Z,98471.00
2018-06-21T07:26:45.734Z,98459.00
2018-06-21T07:29:15.450Z,98467.00
2018-06-21T07:31:45.070Z,98457.00
2018-06-21T07:34:15.150Z,98455.00
2018-06-21T07:36:45.034Z,98454.00
2018-06-21T07:39:14.697Z,98456.00
2018-06-21T07:41:44.269Z,98449.00
2018-06-21T07:44:14.010Z,98451.00
2018-06-21T07:46:43.850Z,98445.00
2018-06-21T07:49:13.631Z,98445.00
2018-06-21T07:51:43.710Z,98440.00
2018-06-21T07:54:13.390Z,98440.00
2018-06-21T07:56:43.130Z,98442.00
2018-06-21T07:59:13.275Z,98437.00
2018-06-21T08:01:42.974Z,98434.00
2018-06-21T08:04:12.853Z,98428.00
2018-06-21T08:06:42.135Z,98428.00
2018-06-21T08:09:13.012Z,98422.00
2018-06-21T08:11:42.640Z,98417.00
2018-06-21T08:14:12.593Z,98421.00
2018-06-21T08:16:45.133Z,98417.00
2018-06-21T08:19:15.113Z,98415.00
2018-06-21T08:21:44.792Z,98416.00
2018-06-21T08:24:14.509Z,98408.00
2018-06-21T08:26:44.090Z,98409.00
2018-06-21T08:29:13.769Z,98410.00
2018-06-21T08:31:43.789Z,98406.00
2018-06-21T08:34:13.842Z,98402.00
2018-06-21T08:36:43.309Z,98406.00
2018-06-21T08:39:12.932Z,98397.00
2018-06-21T08:41:42.652Z,98398.00
2018-06-21T08:44:12.096Z,98399.00
2018-06-21T08:46:42.030Z,98401.00
2018-06-21T08:49:11.703Z,98397.00
2018-06-21T08:51:41.370Z,98397.00
2018-06-21T08:54:11.090Z,98393.00
2018-06-21T08:56:40.954Z,98391.00
2018-06-21T08:59:10.590Z,98389.00
2018-06-21T09:01:40.207Z,98379.00
2018-06-21T09:04:10.089Z,98382.00
2018-06-21T09:06:39.649Z,98383.00
2018-06-21T09:09:10.248Z,98376.00
2018-06-21T09:11:39.913Z,98376.00
2018-06-21T09:14:09.357Z,98379.00
2018-06-21T09:16:38.949Z,98373.00
2018-06-21T09:19:08.591Z,98370.00
2018-06-21T09:21:38.602Z,98365.00
2018-06-21T09:24:08.222Z,98361.00
2018-06-21T09:26:37.782Z,98353.00
2018-06-21T09:29:07.446Z,98360.00
2018-06-21T09:31:37.622Z,98357.00
2018-06-21T09:34:07.395Z,98358.00
2018-06-21T09:36:39.744Z,98349.00
2018-06-21T09:39:17.521Z,98346.00
2018-06-21T09:41:53.101Z,98346.00
2018-06-21T09:44:29.275Z,98344.00
2018-06-21T09:47:04.615Z,98345.00
2018-06-21T09:49:34.788Z,98347.00
2018-06-21T09:52:05.535Z,98335.00
2018-06-21T09:54:34.865Z,98337.00
2018-06-21T09:57:04.584Z,98338.00
2018-06-21T09:59:33.924Z,98337.00
2018-06-21T10:02:03.184Z,98338.00
2018-06-21T10:04:32.744Z,98332.00
2018-06-21T10:07:02.446Z,98321.00
2018-06-21T10:09:31.735Z,98328.00
2018-06-21T10:12:01.116Z,98328.00
2018-06-21T10:14:30.555Z,98317.00
2018-06-21T10:16:59.855Z,98313.00
2018-06-21T10:19:29.195Z,98308.00
2018-06-21T10:21:58.635Z,98309.00
2018-06-21T10:24:27.610Z,98301.00
2018-06-21T10:26:57.302Z,98292.00
2018-06-21T10:29:26.503Z,98287.00
2018-06-21T10:31:55.809Z,98291.00
2018-06-21T10:34:25.069Z,98290.00
2018-06-21T10:36:54.395Z,98286.00
2018-06-21T10:39:23.598Z,98286.00
2018-06-21T10:41:52.924Z,98278.00
2018-06-21T10:44:22.427Z,98275.00
2018-06-21T10:46:52.859Z,98272.00
2018-06-21T10:49:21.865Z,98272.00
2018-06-21T10:51:51.224Z,98259.00
2018-06-21T10:54:20.684Z,98258.00
2018-06-21T10:56:50.045Z,98259.00
2018-06-21T10:59:19.481Z,98254.00
2018-06-21T11:01:48.921Z,98256.00
2018-06-21T11:04:18.461Z,98251.00
2018-06-21T11:06:48.062Z,98248.00
2018-06-21T11:09:17.381Z,98247.00
2018-06-21T11:11:47.341Z,98241.00
2018-06-21T11:14:17.161Z,98244.00
2018-06-21T11:19:08.641Z,98229.00
2018-06-21T11:21:37.901Z,98224.00
2018-06-21T11:24:07.211Z,98225.00
2018-06-21T11:26:36.501Z,98225.00
2018-06-21T11:29:06.221Z,98215.00
2018-06-21T11:31:35.701Z,98210.00
2018-06-21T11:34:05.081Z,98220.00
2018-06-21T11:36:34.481Z,98210.00
2018-06-21T11:39:05.701Z,98213.00
2018-06-21T11:41:35.400Z,98205.00
2018-06-21T11:44:04.941Z,98206.00
2018-06-21T11:46:34.424Z,98200.00
2018-06-21T11:49:04.081Z,98191.00
2018-06-21T11:51:33.461Z,98192.00
2018-06-21T11:54:02.842Z,98193.00
2018-06-21T11:56:32.221Z,98178.00
2018-06-21T11:59:01.622Z,98177.00
2018-06-21T12:01:31.109Z,98178.00
2018-06-21T12:04:00.484Z,98174.00
2018-06-21T12:06:29.804Z,98170.00
2018-06-21T12:08:59.123Z,98175.00
2018-06-21T12:11:28.444Z,98161.00
2018-06-21T12:13:57.842Z,98165.00
2018-06-21T12:16:27.119Z,98156.00
2018-06-21T12:18:56.660Z,98163.00
2018-06-21T12:21:26.322Z,98157.00
2018-06-21T12:23:55.779Z,98154.00
2018-06-21T12:26:25.141Z,98148.00
2018-06-21T12:28:54.399Z,98146.00
2018-06-21T12:31:23.661Z,98146.00
2018-06-21T12:33:53.232Z,98143.00
2018-06-21T12:36:22.592Z,98145.00
2018-06-21T12:38:52.170Z,98141.00
2018-06-21T12:41:21.977Z,98147.00
2018-06-21T12:43:51.472Z,98131.00
2018-06-21T12:46:20.854Z,98131.00
2018-06-21T12:48:50.083Z,98126.00
2018-06-21T12:51:19.400Z,98119.00
2018-06-21T12:53:49.102Z,98108.00
2018-06-21T12:56:18.393Z,98110.00
2018-06-21T12:58:47.548Z,98115.00
2018-06-21T13:01:17.188Z,98102.00
2018-06-21T13:03:46.860Z,98099.00
2018-06-21T13:06:16.244Z,98105.00
2018-06-21T13:09:01.960Z,98100.00
2018-06-21T13:12:54.005Z,98100.00
2018-06-21T13:15:23.347Z,98097.00
2018-06-21T13:17:52.685Z,98088.00
2018-06-21T13:20:22.406Z,98083.00
2018-06-21T13:22:51.945Z,98086.00
2018-06-21T13:25:20.857Z,98085.00
2018-06-21T13:27:50.204Z,98091.00
2018-06-21T13:30:19.628Z,98093.00
2018-06-21T13:32:49.266Z,98095.00
2018-06-21T13:35:19.150Z,98109.00
2018-06-21T13:37:48.688Z,98127.00
2018-06-21T13:40:18.394Z,98140.00
2018-06-21T13:42:47.668Z,98131.00
2018-06-21T13:45:16.988Z,98141.00
2018-06-21T13:47:46.308Z,98144.00
2018-06-21T13:50:15.612Z,98136.00
2018-06-21T13:52:44.786Z,98120.00
2018-06-21T13:55:14.047Z,98114.00
2018-06-21T13:57:43.349Z,98129.00
2018-06-21T14:00:12.487Z,98114.00
2018-06-21T14:02:41.787Z,98117.00
2018-06-21T14:05:11.407Z,98090.00
2018-06-21T14:07:40.932Z,98089.00
2018-06-21T14:10:10.248Z,98086.00
2018-06-21T14:12:39.563Z,98075.00
2018-06-21T14:15:09.019Z,98063.00
2018-06-21T14:17:38.483Z,98068.00
2018-06-21T14:20:07.840Z,98062.00
2018-06-21T14:22:37.180Z,98065.00
2018-06-21T14:25:06.720Z,98069.00
2018-06-21T14:27:36.000Z,98062.00
2018-06-21T14:30:05.480Z,98057.00
2018-06-21T14:32:34.619Z,98053.00
2018-06-21T14:35:03.938Z,98051.00
2018-06-21T14:37:33.260Z,98043.00
2018-06-21T14:40:03.141Z,98047.00
2018-06-21T14:42:32.540Z,98048.00
2018-06-21T14:45:01.882Z,98046.00
2018-06-21T14:47:32.327Z,98044.00
2018-06-21T14:50:01.635Z,98041.00
2018-06-21T14:52:30.832Z,98041.00
2018-06-21T14:55:00.493Z,98037.00
2018-06-21T14:57:29.946Z,98030.00
2018-06-21T14:59:59.511Z,98029.00
2018-06-21T15:02:29.005Z,98024.00
2018-06-21T15:04:58.471Z,98010.00
2018-06-21T15:07:27.812Z,98003.00
2018-06-21T15:10:00.126Z,97997.00
2018-06-21T15:12:29.426Z,97989.00
2018-06-21T15:14:58.805Z,97989.00
2018-06-21T15:17:28.107Z,97989.00
2018-06-21T15:19:57.465Z,97983.00
2018-06-21T15:22:27.065Z,97988.00
2018-06-21T15:24:56.366Z,97989.00
2018-06-21T15:27:25.625Z,97987.00
2018-06-21T15:29:55.606Z,97982.00
2018-06-21T15:32:24.834Z,97984.00
2018-06-21T15:34:54.225Z,97985.00
2018-06-21T15:37:23.565Z,97988.00
2018-06-21T15:39:52.841Z,97997.00
2018-06-21T15:42:22.209Z,98006.00
2018-06-21T15:44:51.732Z,97993.00
2018-06-21T15:47:21.353Z,97996.00
2018-06-21T15:49:50.646Z,97996.00
2018-06-21T15:52:19.913Z,97996.00
2018-06-21T15:54:49.133Z,98001.00
2018-06-21T15:57:18.589Z,98011.00
2018-06-21T15:59:47.947Z,98016.00
2018-06-21T16:02:17.266Z,98018.00
2018-06-21T16:04:46.690Z,98013.00
2018-06-21T16:07:16.060Z,98016.00
2018-06-21T16:09:45.397Z,98015.00
2018-06-21T16:12:14.738Z,98017.00
2018-06-21T16:14:44.124Z,98024.00
2018-06-21T16:17:13.389Z,98022.00
2018-06-21T16:19:42.951Z,98026.00
2018-06-21T16:22:12.313Z,98028.00
2018-06-21T16:24:41.904Z,98027.00
2018-06-21T16:27:11.263Z,98024.00
2018-06-21T16:29:40.647Z,98031.00
2018-06-21T16:32:10.133Z,98033.00
2018-06-21T16:34:39.793Z,98036.00
2018-06-21T16:37:09.233Z,98028.00
2018-06-21T16:39:38.672Z,98028.00
2018-06-21T16:42:08.213Z,98036.00
2018-06-21T16:44:37.753Z,98027.00
2018-06-21T16:47:07.313Z,98029.00
2018-06-21T16:49:36.590Z,98027.00
2018-06-21T16:52:05.950Z,98029.00
2018-06-21T16:54:35.330Z,98038.00
2018-06-21T16:57:04.690Z,98034.00
2018-06-21T16:59:34.010Z,98042.00
2018-06-21T17:02:03.410Z,98050.00
2018-06-21T17:04:33.030Z,98053.00
2018-06-21T17:07:02.450Z,98049.00
2018-06-21T17:09:31.811Z,98048.00
2018-06-21T17:12:01.171Z,98064.00
2018-06-21T17:14:30.490Z,98074.00
2018-06-21T17:17:00.146Z,98074.00
2018-06-21T17:19:29.471Z,98079.00
2018-06-21T17:21:58.790Z,98102.00
2018-06-21T17:24:28.289Z,98111.00
2018-06-21T17:26:57.511Z,98117.00
2018-06-21T17:29:26.870Z,98124.00
2018-06-21T17:31:56.212Z,98130.00
2018-06-21T17:34:25.554Z,98136.00
2018-06-21T17:36:54.884Z,98149.00
2018-06-21T17:39:24.170Z,98148.00
2018-06-21T17:41:53.571Z,98151.00
2018-06-21T17:44:22.969Z,98166.00
2018-06-21T17:46:52.329Z,98173.00
2018-06-21T17:49:21.771Z,98175.00
2018-06-21T17:51:51.049Z,98176.00
2018-06-21T17:54:20.570Z,98181.00
2018-06-21T17:56:49.955Z,98189.00
2018-06-21T17:59:19.467Z,98192.00
2018-06-21T18:01:48.901Z,98196.00
2018-06-21T18:04:18.283Z,98177.00
2018-06-21T18:06:47.722Z,98180.00
2018-06-21T18:09:17.122Z,98186.00
2018-06-21T18:11:46.382Z,98180.00
2018-06-21T18:14:15.862Z,98181.00
2018-06-21T18:16:45.202Z,98182.00
2018-06-21T18:19:14.559Z,98195.00
2018-06-21T18:21:43.922Z,98183.00
2018-06-21T18:24:13.322Z,98195.00
2018-06-21T18:26:42.862Z,98203.00
2018-06-21T18:29:12.189Z,98197.00
2018-06-21T18:31:41.602Z,98204.00
2018-06-21T18:34:10.994Z,98199.00
2018-06-21T18:36:39.982Z,98208.00
2018-06-21T18:39:11.302Z,98203.00
2018-06-21T18:41:41.322Z,98209.00
2018-06-21T18:44:10.922Z,98210.00
2018-06-21T18:46:40.622Z,98213.00
2018-06-21T18:49:09.882Z,98218.00
2018-06-21T18:51:38.842Z,98216.00
2018-06-21T18:54:08.122Z,98221.00
2018-06-21T18:56:37.482Z,98235.00
2018-06-21T18:59:07.464Z,98237.00
2018-06-21T19:01:37.042Z,98241.00
2018-06-21T19:04:06.762Z,98242.00
2018-06-21T19:06:41.641Z,98246.00
2018-06-21T19:09:16.521Z,98259.00
2018-06-21T19:11:51.085Z,98254.00
2018-06-21T19:14:20.089Z,98258.00
2018-06-21T19:16:49.462Z,98268.00
2018-06-21T19:19:18.869Z,98274.00
2018-06-21T19:21:48.156Z,98282.00
2018-06-21T19:24:17.502Z,98281.00
2018-06-21T19:26:46.862Z,98293.00
2018-06-21T19:29:16.123Z,98290.00
2018-06-21T19:31:45.339Z,98289.00
2018-06-21T19:34:14.961Z,98293.00
2018-06-21T19:36:44.263Z,98298.00
2018-06-21T19:39:13.602Z,98297.00
2018-06-21T19:41:42.981Z,98299.00
2018-06-21T19:44:12.262Z,98306.00
2018-06-21T19:46:41.565Z,98303.00
2018-06-21T19:49:11.082Z,98306.00
2018-06-21T19:51:40.903Z,98313.00
2018-06-21T19:54:10.512Z,98310.00
2018-06-21T19:56:39.924Z,98311.00
2018-06-21T19:59:09.102Z,98313.00
2018-06-21T20:01:38.543Z,98317.00
2018-06-21T20:04:07.905Z,98312.00
2018-06-21T20:06:37.223Z,98316.00
2018-06-21T20:09:09.304Z,98323.00
2018-06-21T20:11:38.847Z,98324.00
2018-06-21T20:14:08.206Z,98328.00
2018-06-21T20:16:37.706Z,98326.00
2018-06-21T20:19:14.047Z,98328.00
2018-06-21T20:21:43.728Z,98326.00
2018-06-21T20:24:13.066Z,98326.00
2018-06-21T20:26:42.426Z,98326.00
2018-06-21T20:29:17.526Z,98330.00
2018-06-21T20:31:46.906Z,98333.00
2018-06-21T20:34:16.446Z,98329.00
2018-06-21T20:36:45.807Z,98337.00
2018-06-21T20:39:15.086Z,98334.00
2018-06-21T20:41:44.468Z,98343.00
2018-06-21T20:44:13.914Z,98344.00
2018-06-21T20:46:43.406Z,98350.00
2018-06-21T20:49:12.706Z,98358.00
2018-06-21T20:51:42.426Z,98357.00
2018-06-21T20:54:12.445Z,98358.00
2018-06-21T20:56:42.064Z,98367.00
2018-06-21T20:59:12.126Z,98358.00
2018-06-21T21:01:41.526Z,98352.00
2018-06-21T21:04:11.066Z,98353.00
2018-06-21T21:06:40.447Z,98351.00
2018-06-21T21:09:09.825Z,98356.00
2018-06-21T21:11:39.146Z,98356.00
2018-06-21T21:14:08.525Z,98348.00
2018-06-21T21:16:37.961Z,98351.00
2018-06-21T21:19:07.246Z,98354.00
2018-06-21T21:21:37.106Z,98350.00
2018-06-21T21:24:06.206Z,98362.00
2018-06-21T21:26:35.551Z,98355.00
2018-06-21T21:29:05.126Z,98359.00
2018-06-21T21:31:34.824Z,98362.00
2018-06-21T21:34:04.176Z,98351.00
2018-06-21T21:36:33.532Z,98358.00
2018-06-21T21:39:03.213Z,98353.00
2018-06-21T21:41:32.847Z,98354.00
2018-06-21T21:44:02.191Z,98355.00
2018-06-21T21:46:34.946Z,98351.00
2018-06-21T21:49:04.287Z,98359.00
2018-06-21T21:51:33.547Z,98366.00
2018-06-21T21:54:02.927Z,98368.00
2018-06-21T21:56:31.947Z,98375.00
2018-06-21T21:59:01.686Z,98380.00
2018-06-21T22:01:31.173Z,98375.00
2018-06-21T22:04:00.536Z,98392.00
2018-06-21T22:06:29.966Z,98397.00
2018-06-21T22:08:59.255Z,98405.00
2018-06-21T22:11:28.556Z,98409.00
2018-06-21T22:14:03.793Z,98417.00
2018-06-21T22:16:35.162Z,98430.00
2018-06-21T22:19:04.693Z,98428.00
2018-06-21T22:21:34.038Z,98431.00
2018-06-21T22:24:03.593Z,98430.00
2018-06-21T22:26:32.813Z,98431.00
2018-06-21T22:29:02.213Z,98439.00
2018-06-21T22:31:31.553Z,98448.00
2018-06-21T22:34:00.913Z,98452.00
2018-06-21T22:36:30.153Z,98453.00
2018-06-21T22:38:59.393Z,98463.00
2018-06-21T22:41:29.693Z,98465.00
2018-06-21T22:43:59.033Z,98469.00
2018-06-21T22:46:28.433Z,98476.00
2018-06-21T22:48:57.872Z,98473.00
2018-06-21T22:51:27.353Z,98475.00
2018-06-21T22:56:28.933Z,98495.00
2018-06-21T22:58:58.233Z,98510.00
2018-06-21T23:01:27.973Z,98513.00
2018-06-21T23:03:57.713Z,98521.00
2018-06-21T23:06:27.292Z,98507.00
2018-06-21T23:08:56.733Z,98522.00
2018-06-21T23:11:26.138Z,98526.00
2018-06-21T23:13:55.473Z,98527.00
2018-06-21T23:16:24.813Z,98527.00
2018-06-21T23:19:10.453Z,98523.00
2018-06-21T23:21:39.773Z,98528.00
2018-06-21T23:24:08.773Z,98527.00
2018-06-21T23:26:37.794Z,98536.00
2018-06-21T23:29:07.154Z,98536.00
2018-06-21T23:31:36.795Z,98544.00
2018-06-21T23:34:06.394Z,98539.00
2018-06-21T23:36:35.734Z,98550.00
2018-06-21T23:39:08.253Z,98562.00
2018-06-21T23:41:37.313Z,98562.00
2018-06-21T23:44:07.113Z,98574.00
2018-06-21T23:46:36.692Z,98568.00
2018-06-21T23:49:05.953Z,98561.00
2018-06-21T23:51:35.711Z,98579.00
2018-06-21T23:54:05.835Z,98572.00
2018-06-21T23:56:35.632Z,98586.00
2018-06-21T23:59:05.333Z,98581.00
